Time;durP1;ratioP1;P1;durP2;ratioP2;P2;SDS_P1;SDS_P2;PMS_P1;PMS_P2;Temp;Humidity;BMP_temperature;BMP_pressure;BME280_temperature;BME280_humidity;BME280_pressure;Samples;Min_cycle;Max_cycle;Signal;HPM_P1;HPM_P2
2022/06/14 00:03:11;;;;;;;10.13;4.03;;;10.10;99.90;;;;;;5075257;28;20045;-84
2022/06/14 00:05:37;;;;;;;4.43;1.80;;;10.10;99.90;;;;;;5075540;28;20125;-82
2022/06/14 00:08:03;;;;;;;6.57;1.90;;;10.10;99.90;;;;;;5078828;28;20142;-83
2022/06/14 00:10:29;;;;;;;7.75;2.05;;;10.10;99.90;;;;;;5058401;28;20102;-82
2022/06/14 00:12:55;;;;;;;7.82;2.00;;;10.10;99.90;;;;;;5077569;28;20599;-82
2022/06/14 00:15:21;;;;;;;5.15;1.33;;;10.10;99.90;;;;;;5078084;28;20074;-83
2022/06/14 00:17:47;;;;;;;10.82;2.72;;;10.10;99.90;;;;;;5078001;28;20040;-82
2022/06/14 00:20:13;;;;;;;8.98;1.67;;;10.10;99.90;;;;;;5076506;28;20047;-82
2022/06/14 00:22:38;;;;;;;4.70;1.00;;;10.10;99.90;;;;;;5075460;28;20045;-82
2022/06/14 00:25:05;;;;;;;8.32;2.75;;;10.10;99.90;;;;;;5075992;28;20052;-82
2022/06/14 00:27:30;;;;;;;15.85;3.35;;;10.10;99.90;;;;;;5059321;28;20446;-82
2022/06/14 00:29:56;;;;;;;12.23;2.58;;;10.10;99.90;;;;;;5057256;28;20099;-82
2022/06/14 00:32:22;;;;;;;6.80;2.10;;;10.10;99.90;;;;;;5073786;28;20040;-82
2022/06/14 00:34:47;;;;;;;4.15;2.25;;;10.10;99.90;;;;;;5058794;28;20044;-82
2022/06/14 00:37:18;;;;;;;8.88;2.13;;;10.00;99.90;;;;;;5072217;28;20508;-83
2022/06/14 00:39:44;;;;;;;5.93;1.60;;;10.00;99.90;;;;;;5075103;28;20521;-82
2022/06/14 00:42:21;;;;;;;5.05;1.92;;;9.90;99.90;;;;;;5078162;28;20048;-83
2022/06/14 00:45:08;;;;;;;3.75;2.35;;;9.80;99.90;;;;;;5074742;28;20105;-82
2022/06/14 00:48:00;;;;;;;7.40;2.70;;;9.80;99.90;;;;;;5068961;28;20037;-83
2022/06/14 00:50:30;;;;;;;3.20;1.60;;;9.80;99.90;;;;;;5069595;28;20060;-83
2022/06/14 00:53:04;;;;;;;6.32;1.52;;;9.80;99.90;;;;;;5076873;28;20040;-82
2022/06/14 00:55:36;;;;;;;6.30;2.25;;;9.70;99.90;;;;;;5055838;28;20066;-82
2022/06/14 00:58:28;;;;;;;3.67;1.75;;;9.60;99.90;;;;;;5075144;28;20048;-82
2022/06/14 01:01:10;;;;;;;5.63;2.15;;;9.60;99.90;;;;;;5074863;28;20444;-82
2022/06/14 01:03:57;;;;;;;7.93;1.90;;;9.50;99.90;;;;;;5069979;28;20048;-82
2022/06/14 01:06:44;;;;;;;4.68;2.17;;;9.60;99.90;;;;;;5059931;28;20020;-82
2022/06/14 01:09:14;;;;;;;5.55;1.92;;;9.40;99.90;;;;;;5076650;28;20044;-82
2022/06/14 01:11:45;;;;;;;8.38;1.52;;;9.40;99.90;;;;;;5072291;28;20068;-81
2022/06/14 01:14:15;;;;;;;7.43;2.15;;;9.40;99.90;;;;;;5066297;28;20365;-85
2022/06/14 01:16:41;;;;;;;7.72;2.28;;;9.40;99.90;;;;;;5069958;28;20471;-87
2022/06/14 01:19:14;;;;;;;8.00;2.22;;;9.50;99.90;;;;;;5069995;28;20028;-86
2022/06/14 01:21:40;;;;;;;10.93;2.40;;;9.50;99.90;;;;;;5052385;28;20044;-86
2022/06/14 01:24:06;;;;;;;14.38;3.58;;;9.50;99.90;;;;;;5066600;28;20040;-85
2022/06/14 01:26:32;;;;;;;6.95;3.50;;;9.50;99.90;;;;;;5054807;28;20033;-85
2022/06/14 01:29:01;;;;;;;5.15;2.15;;;9.50;99.90;;;;;;5071973;28;20048;-84
2022/06/14 01:31:29;;;;;;;6.65;2.80;;;9.60;99.90;;;;;;5067636;28;20045;-85
2022/06/14 01:33:59;;;;;;;7.97;2.30;;;9.60;99.90;;;;;;5072935;28;20394;-86
2022/06/14 01:36:29;;;;;;;10.23;3.38;;;9.70;99.90;;;;;;5078175;28;20064;-82
2022/06/14 01:38:58;;;;;;;4.88;2.00;;;9.70;99.90;;;;;;5073722;28;20485;-81
2022/06/14 01:41:42;;;;;;;9.05;2.35;;;9.70;99.90;;;;;;5073898;28;20048;-81
2022/06/14 01:44:34;;;;;;;9.35;2.58;;;9.70;99.90;;;;;;5073493;28;20041;-81
2022/06/14 01:47:34;;;;;;;6.93;2.45;;;9.80;99.90;;;;;;5070021;28;20609;-82
2022/06/14 01:53:14;;;;;;;12.57;2.78;;;9.80;99.90;;;;;;5071706;28;20060;-81
2022/06/14 01:55:51;;;;;;;14.05;3.33;;;9.80;99.90;;;;;;5074252;28;20486;-81
2022/06/14 01:58:35;;;;;;;4.72;1.73;;;9.80;99.90;;;;;;5067493;28;20076;-81
2022/06/14 02:01:28;;;;;;;9.45;2.40;;;9.80;99.90;;;;;;5069070;28;20040;-81
2022/06/14 02:04:37;;;;;;;11.00;3.08;;;9.70;99.90;;;;;;5072411;28;20381;-81
2022/06/14 02:07:17;;;;;;;5.38;2.55;;;9.70;99.90;;;;;;5054829;28;20051;-80
2022/06/14 02:10:14;;;;;;;6.63;1.88;;;9.70;99.90;;;;;;5059127;28;20055;-80
2022/06/14 02:12:55;;;;;;;7.70;2.28;;;9.60;99.90;;;;;;5072922;28;20055;-81
2022/06/14 02:15:36;;;;;;;6.68;2.65;;;9.60;99.90;;;;;;5075675;28;20123;-81
2022/06/14 02:18:25;;;;;;;16.13;3.42;;;9.50;99.90;;;;;;5072151;28;20415;-81
2022/06/14 02:20:59;;;;;;;8.80;2.25;;;9.50;99.90;;;;;;5054827;28;20114;-83
2022/06/14 02:23:28;;;;;;;6.57;1.83;;;9.50;99.90;;;;;;5058293;28;20522;-83
2022/06/14 02:25:58;;;;;;;7.53;2.47;;;9.50;99.90;;;;;;5071786;28;20518;-82
2022/06/14 02:28:28;;;;;;;8.52;2.97;;;9.50;99.90;;;;;;5080614;28;20096;-83
2022/06/14 02:31:02;;;;;;;6.82;2.50;;;9.50;99.90;;;;;;5075767;28;20036;-82
2022/06/14 02:33:44;;;;;;;7.40;2.53;;;9.50;99.90;;;;;;5078408;28;20048;-85
2022/06/14 02:36:21;;;;;;;6.95;2.13;;;9.50;99.90;;;;;;5078850;28;20648;-84
2022/06/14 02:39:06;;;;;;;6.18;2.20;;;9.40;99.90;;;;;;5069786;28;20425;-84
2022/06/14 02:41:49;;;;;;;8.80;2.45;;;9.30;99.90;;;;;;5070127;28;20070;-83
2022/06/14 02:44:22;;;;;;;5.10;2.13;;;9.20;99.90;;;;;;5051081;28;20040;-84
2022/06/14 02:47:03;;;;;;;9.40;2.80;;;9.20;99.90;;;;;;5072393;28;20056;-84
2022/06/14 02:49:34;;;;;;;4.88;2.47;;;9.30;99.90;;;;;;5073267;28;20115;-82
2022/06/14 02:52:07;;;;;;;11.07;2.08;;;9.30;99.90;;;;;;5070907;28;20032;-83
2022/06/14 02:54:44;;;;;;;8.40;2.15;;;9.30;99.90;;;;;;5083260;28;20041;-81
2022/06/14 02:57:32;;;;;;;6.45;2.13;;;9.30;99.90;;;;;;5061743;28;20491;-83
2022/06/14 03:00:15;;;;;;;7.88;2.40;;;9.30;99.90;;;;;;5080630;28;20461;-81
2022/06/14 03:02:50;;;;;;;9.80;2.83;;;9.30;99.90;;;;;;5078692;28;20037;-84
2022/06/14 03:05:24;;;;;;;6.97;1.95;;;9.30;99.90;;;;;;5077015;28;20039;-84
2022/06/14 03:08:02;;;;;;;7.68;3.53;;;9.30;99.90;;;;;;5077024;28;20120;-83
2022/06/14 03:10:39;;;;;;;12.43;3.35;;;9.30;99.90;;;;;;5075098;28;20032;-85
2022/06/14 03:13:18;;;;;;;7.90;2.35;;;9.30;99.90;;;;;;5075930;28;20040;-84
2022/06/14 03:15:54;;;;;;;12.02;2.72;;;9.30;99.90;;;;;;5078268;28;20540;-83
2022/06/14 03:18:42;;;;;;;15.85;3.47;;;9.30;99.90;;;;;;5078264;28;20059;-82
2022/06/14 03:21:15;;;;;;;5.93;2.92;;;9.30;99.90;;;;;;5076071;28;20069;-82
2022/06/14 03:23:54;;;;;;;5.43;2.25;;;9.40;99.90;;;;;;5076707;28;20089;-82
2022/06/14 03:26:29;;;;;;;4.50;2.60;;;9.40;99.90;;;;;;5059616;28;20036;-82
2022/06/14 03:29:03;;;;;;;7.05;2.20;;;9.40;99.90;;;;;;5076470;28;20072;-81
2022/06/14 03:31:29;;;;;;;10.88;2.83;;;9.40;99.90;;;;;;5062818;28;20040;-85
2022/06/14 03:34:11;;;;;;;5.75;3.05;;;9.40;99.90;;;;;;5076614;28;20045;-85
2022/06/14 03:36:37;;;;;;;7.68;2.67;;;9.40;99.90;;;;;;5056897;28;20032;-84
2022/06/14 03:39:11;;;;;;;12.20;3.38;;;9.40;99.90;;;;;;5071803;28;20036;-84
2022/06/14 03:41:43;;;;;;;5.93;2.13;;;9.50;99.90;;;;;;5072359;28;20028;-85
2022/06/14 03:44:09;;;;;;;4.53;2.20;;;9.50;99.90;;;;;;5073178;28;20553;-84
2022/06/14 03:46:40;;;;;;;13.48;3.15;;;9.50;99.90;;;;;;5071838;28;20028;-84
2022/06/14 03:49:11;;;;;;;14.32;3.38;;;9.60;99.90;;;;;;5070799;28;20029;-84
2022/06/14 03:51:58;;;;;;;10.85;3.00;;;9.60;99.90;;;;;;5071058;28;20519;-83
2022/06/14 03:54:33;;;;;;;8.10;2.65;;;9.70;99.90;;;;;;5054796;28;20043;-84
2022/06/14 03:57:17;;;;;;;5.88;2.55;;;9.70;99.90;;;;;;5055667;28;20068;-85
2022/06/14 03:59:55;;;;;;;11.38;3.15;;;9.70;99.90;;;;;;5074034;28;20509;-85
2022/06/14 04:02:54;;;;;;;5.45;2.25;;;9.70;99.90;;;;;;5071256;28;20044;-85
2022/06/14 04:05:32;;;;;;;8.40;2.25;;;9.80;99.90;;;;;;5073483;28;20051;-84
2022/06/14 04:08:14;;;;;;;7.40;2.40;;;9.80;99.90;;;;;;5053841;28;20126;-84
2022/06/14 04:10:43;;;;;;;7.18;2.55;;;9.80;99.90;;;;;;5071225;28;20040;-84
2022/06/14 04:13:29;;;;;;;4.65;1.80;;;9.80;99.90;;;;;;5069186;28;20492;-84
2022/06/14 04:16:22;;;;;;;7.75;1.92;;;9.80;99.90;;;;;;5052987;28;20502;-84
2022/06/14 04:19:32;;;;;;;5.13;2.10;;;9.90;99.90;;;;;;5053354;28;20041;-85
2022/06/14 04:22:15;;;;;;;5.45;1.92;;;9.90;99.90;;;;;;5078909;28;20402;-84
2022/06/14 04:24:49;;;;;;;7.25;2.67;;;9.90;99.90;;;;;;5077476;28;20045;-84
2022/06/14 04:27:36;;;;;;;4.70;2.17;;;9.80;99.90;;;;;;5091108;28;20040;-83
2022/06/14 04:30:25;;;;;;;7.43;2.35;;;9.80;99.90;;;;;;5077461;28;20039;-84
2022/06/14 04:33:12;;;;;;;5.65;3.10;;;9.80;99.90;;;;;;5074050;28;20153;-83
2022/06/14 04:35:50;;;;;;;9.15;2.53;;;9.90;99.90;;;;;;5075014;28;20041;-84
2022/06/14 04:38:31;;;;;;;8.75;3.88;;;10.00;99.90;;;;;;5065656;28;20033;-80
2022/06/14 04:41:03;;;;;;;4.53;2.28;;;10.20;99.90;;;;;;5082697;28;20095;-80
2022/06/14 04:43:38;;;;;;;9.30;2.90;;;10.30;99.90;;;;;;5082473;28;20044;-80
2022/06/14 04:46:13;;;;;;;12.43;2.80;;;10.40;99.90;;;;;;5083579;28;20045;-80
2022/06/14 04:49:04;;;;;;;;;;;10.60;99.90;;;;;;5077792;28;20040;-80
2022/06/14 04:51:32;;;;;;;8.85;2.08;;;10.70;99.90;;;;;;5080162;28;19939;-80
2022/06/14 04:54:04;;;;;;;4.40;2.05;;;10.80;99.90;;;;;;5085457;28;20449;-80
2022/06/14 04:56:41;;;;;;;11.73;2.65;;;10.90;99.90;;;;;;5063544;28;20399;-83
2022/06/14 04:59:33;;;;;;;6.55;2.33;;;11.00;99.90;;;;;;5071490;28;20060;-83
2022/06/14 05:02:28;;;;;;;6.18;2.10;;;11.20;99.90;;;;;;5073939;28;20471;-83
2022/06/14 05:05:04;;;;;;;7.65;2.72;;;11.40;99.90;;;;;;5056570;28;20131;-84
2022/06/14 05:07:46;;;;;;;10.38;2.08;;;11.50;99.90;;;;;;5073656;28;20081;-83
2022/06/14 05:10:16;;;;;;;6.50;1.73;;;11.60;99.90;;;;;;5056357;28;20044;-83
2022/06/14 05:12:47;;;;;;;12.45;1.95;;;11.70;99.90;;;;;;5071588;28;20032;-83
2022/06/14 05:15:46;;;;;;;6.18;1.63;;;11.80;99.90;;;;;;5081010;28;20052;-84
2022/06/14 05:18:29;;;;;;;16.17;2.92;;;11.90;99.90;;;;;;5073975;28;20051;-84
2022/06/14 05:21:13;;;;;;;6.25;1.60;;;12.10;99.90;;;;;;5073539;28;20100;-84
2022/06/14 05:23:48;;;;;;;4.07;1.15;;;12.20;99.90;;;;;;5072945;28;20040;-84
2022/06/14 05:26:25;;;;;;;6.75;1.38;;;12.30;99.90;;;;;;5073211;28;20041;-84
2022/06/14 05:29:09;;;;;;;4.78;1.58;;;12.30;99.90;;;;;;5056489;28;20047;-84
2022/06/14 05:31:54;;;;;;;3.65;0.90;;;12.40;99.90;;;;;;5055790;28;20043;-84
2022/06/14 05:34:44;;;;;;;5.28;1.05;;;12.50;99.90;;;;;;5073686;28;20048;-84
2022/06/14 05:37:37;;;;;;;4.00;0.95;;;12.60;99.90;;;;;;5072536;28;20195;-84
2022/06/14 05:40:10;;;;;;;6.82;1.15;;;12.60;99.90;;;;;;5056314;28;20044;-85
2022/06/14 05:42:42;;;;;;;5.80;1.13;;;12.80;99.90;;;;;;5072415;28;20036;-84
2022/06/14 05:45:11;;;;;;;6.93;1.05;;;12.90;99.90;;;;;;5056033;28;20044;-83
2022/06/14 05:47:44;;;;;;;5.88;1.30;;;13.00;99.90;;;;;;5072359;28;20041;-83
2022/06/14 05:50:16;;;;;;;8.88;0.98;;;13.10;99.90;;;;;;5072318;28;20051;-85
2022/06/14 05:52:50;;;;;;;6.43;1.15;;;13.20;99.90;;;;;;5055068;28;20036;-85
2022/06/14 05:55:15;;;;;;;7.90;1.52;;;13.20;99.90;;;;;;5055432;28;20048;-85
2022/06/14 05:58:07;;;;;;;6.82;1.10;;;13.30;99.90;;;;;;5056341;28;20044;-85
2022/06/14 06:00:49;;;;;;;8.02;0.88;;;13.50;99.90;;;;;;5072342;28;20057;-83
2022/06/14 06:03:20;;;;;;;7.53;1.05;;;13.50;99.90;;;;;;5072086;28;20088;-84
2022/06/14 06:05:58;;;;;;;8.82;1.42;;;13.60;99.90;;;;;;5055471;28;20040;-84
2022/06/14 06:08:32;;;;;;;4.57;0.70;;;13.60;99.90;;;;;;5071927;28;20374;-84
2022/06/14 06:11:05;;;;;;;4.57;1.23;;;13.70;99.90;;;;;;5055325;28;20050;-84
2022/06/14 06:13:36;;;;;;;7.40;2.17;;;13.80;99.90;;;;;;5054203;28;20036;-84
2022/06/14 06:16:12;;;;;;;6.50;1.20;;;13.90;99.90;;;;;;5071668;28;20521;-84
2022/06/14 06:18:49;;;;;;;8.63;1.00;;;13.90;99.90;;;;;;5071553;28;20049;-84
2022/06/14 06:21:48;;;;;;;6.15;1.52;;;14.00;99.90;;;;;;5066306;28;20037;-82
2022/06/14 06:24:39;;;;;;;7.47;0.80;;;14.10;99.90;;;;;;5070323;28;20063;-82
2022/06/14 06:27:10;;;;;;;6.22;1.30;;;14.40;99.90;;;;;;5084193;28;20075;-83
2022/06/14 06:29:54;;;;;;;4.78;0.93;;;14.60;99.90;;;;;;5067313;28;20058;-82
2022/06/14 06:32:22;;;;;;;4.38;0.60;;;14.80;99.90;;;;;;5083873;28;20109;-84
2022/06/14 06:34:49;;;;;;;5.43;1.38;;;15.00;99.90;;;;;;5070550;28;20055;-83
2022/06/14 06:37:37;;;;;;;2.30;0.47;;;15.20;99.90;;;;;;5083680;28;20093;-84
2022/06/14 06:40:26;;;;;;;3.70;0.50;;;15.30;99.90;;;;;;5067543;28;20047;-83
2022/06/14 06:42:57;;;;;;;5.90;0.60;;;15.40;99.90;;;;;;5067696;28;20083;-83
2022/06/14 06:45:26;;;;;;;4.85;0.77;;;15.60;99.90;;;;;;5070809;28;20068;-83
2022/06/14 06:47:59;;;;;;;3.15;0.50;;;15.80;99.90;;;;;;5066879;28;20037;-83
2022/06/14 06:50:35;;;;;;;6.47;1.13;;;16.00;99.90;;;;;;5060753;28;20197;-83
2022/06/14 06:53:17;;;;;;;15.57;1.60;;;16.10;99.90;;;;;;5076049;28;20040;-82
2022/06/14 06:55:57;;;;;;;2.95;0.50;;;16.20;99.90;;;;;;5077880;28;20075;-83
2022/06/14 06:58:32;;;;;;;3.72;0.40;;;16.20;99.90;;;;;;5063605;28;20032;-82
2022/06/14 07:01:02;;;;;;;1.50;0.55;;;16.30;99.90;;;;;;5066867;28;20048;-84
2022/06/14 07:03:44;;;;;;;4.30;0.52;;;16.50;99.90;;;;;;5084802;28;20090;-83
2022/06/14 07:06:36;;;;;;;3.20;0.40;;;16.60;99.90;;;;;;5084062;28;20081;-83
2022/06/14 07:09:25;;;;;;;3.17;0.70;;;16.80;99.90;;;;;;5085663;28;20036;-84
2022/06/14 07:12:07;;;;;;;3.13;0.80;;;16.80;99.90;;;;;;5080425;28;20040;-84
2022/06/14 07:14:41;;;;;;;5.60;0.73;;;16.90;99.90;;;;;;5066388;28;20100;-85
2022/06/14 07:17:25;;;;;;;4.38;0.50;;;16.80;99.90;;;;;;5068039;28;20059;-83
2022/06/14 07:20:00;;;;;;;4.53;0.77;;;16.80;99.90;;;;;;5079863;28;20040;-84
2022/06/14 07:22:50;;;;;;;3.20;0.40;;;17.10;99.90;;;;;;5064101;28;20068;-83
2022/06/14 07:25:23;;;;;;;4.03;0.60;;;17.40;99.90;;;;;;5065451;28;20078;-84
2022/06/14 07:28:01;;;;;;;2.85;0.70;;;17.60;99.90;;;;;;5073110;28;20040;-85
2022/06/14 07:30:34;;;;;;;4.55;0.50;;;17.80;99.90;;;;;;5054935;28;20045;-85
2022/06/14 07:33:01;;;;;;;2.70;0.30;;;18.00;99.90;;;;;;5071078;28;20119;-84
2022/06/14 07:35:36;;;;;;;5.20;1.20;;;18.30;99.90;;;;;;5071105;28;20047;-84
2022/06/14 07:38:13;;;;;;;2.05;0.50;;;18.30;99.90;;;;;;5071663;28;20048;-84
2022/06/14 07:40:49;;;;;;;3.70;0.45;;;18.40;99.90;;;;;;5071721;28;20076;-83
2022/06/14 07:43:26;;;;;;;5.90;0.40;;;18.70;99.90;;;;;;5055307;28;20045;-83
2022/06/14 07:45:52;;;;;;;3.20;0.65;;;18.90;99.90;;;;;;5071210;28;20048;-83
2022/06/14 07:48:32;;;;;;;3.75;0.50;;;18.70;99.90;;;;;;5077730;28;20403;-82
2022/06/14 07:51:13;;;;;;;7.20;0.77;;;18.70;99.90;;;;;;5062071;28;20045;-82
2022/06/14 07:53:51;;;;;;;2.20;0.63;;;18.70;99.90;;;;;;5078529;28;20040;-82
2022/06/14 07:56:22;;;;;;;3.35;1.48;;;18.90;99.90;;;;;;5082902;28;20028;-82
2022/06/14 07:59:08;;;;;;;1.92;0.73;;;19.10;99.90;;;;;;5065894;28;20686;-82
2022/06/14 08:01:39;;;;;;;1.70;0.80;;;19.30;99.90;;;;;;5083422;28;20043;-82
2022/06/14 08:04:18;;;;;;;3.72;0.43;;;19.40;99.90;;;;;;5066792;28;20045;-81
2022/06/14 08:07:10;;;;;;;5.25;0.30;;;19.10;99.90;;;;;;5083633;28;20048;-82
2022/06/14 08:09:52;;;;;;;5.60;0.60;;;18.70;99.90;;;;;;5069431;28;20036;-80
2022/06/14 08:12:38;;;;;;;1.48;0.20;;;18.60;99.90;;;;;;5085313;28;20048;-82
2022/06/14 08:15:14;;;;;;;3.25;0.70;;;18.70;99.90;;;;;;5086100;28;20104;-81
2022/06/14 08:18:02;;;;;;;3.50;1.10;;;19.10;99.90;;;;;;5085771;28;20045;-82
2022/06/14 08:20:36;;;;;;;3.45;0.40;;;19.50;99.90;;;;;;5086453;28;20052;-81
2022/06/14 08:23:09;;;;;;;2.33;0.75;;;19.90;99.90;;;;;;5068901;28;20111;-82
2022/06/14 08:25:40;;;;;;;3.10;0.47;;;19.70;99.90;;;;;;5086133;28;20526;-81
2022/06/14 08:28:29;;;;;;;4.30;0.38;;;19.20;99.90;;;;;;5068908;28;20106;-81
2022/06/14 08:31:31;;;;;;;3.13;1.67;;;18.90;99.90;;;;;;5086057;28;20040;-80
2022/06/14 08:34:04;;;;;;;3.67;0.80;;;18.60;99.90;;;;;;5087516;28;20102;-81
2022/06/14 08:36:54;;;;;;;2.88;0.30;;;18.80;99.90;;;;;;5070510;28;20059;-81
2022/06/14 08:39:27;;;;;;;2.85;0.52;;;19.40;99.90;;;;;;5086083;28;20499;-80
2022/06/14 08:42:21;;;;;;;4.38;0.40;;;19.80;97.20;;;;;;5085847;28;20479;-80
2022/06/14 08:45:01;;;;;;;3.30;0.68;;;20.10;96.60;;;;;;5082023;28;20051;-80
2022/06/14 08:47:36;;;;;;;4.68;0.82;;;20.50;95.40;;;;;;5074818;28;20040;-81
2022/06/14 08:50:47;;;;;;;2.80;0.45;;;20.80;90.30;;;;;;5074960;28;20575;-81
2022/06/14 08:53:25;;;;;;;3.00;0.32;;;20.90;84.60;;;;;;5069841;28;20506;-81
2022/06/14 08:56:12;;;;;;;4.93;1.33;;;21.00;86.20;;;;;;5075649;28;20044;-82
2022/06/14 08:59:01;;;;;;;4.25;0.63;;;21.00;90.10;;;;;;5059064;28;20045;-81
2022/06/14 09:01:53;;;;;;;3.75;0.68;;;21.10;86.60;;;;;;5075589;28;20047;-83
2022/06/14 09:04:50;;;;;;;2.28;0.52;;;20.90;87.80;;;;;;5075047;28;20045;-80
2022/06/14 09:07:57;;;;;;;2.53;0.82;;;20.50;84.40;;;;;;5073875;28;20063;-81
2022/06/14 09:10:46;;;;;;;2.17;0.25;;;20.00;86.30;;;;;;5073667;28;20150;-80
2022/06/14 09:13:26;;;;;;;2.58;0.40;;;19.70;92.10;;;;;;5075683;28;20437;-81
2022/06/14 09:16:10;;;;;;;1.75;0.30;;;19.60;91.90;;;;;;5079477;28;20052;-80
2022/06/14 09:18:56;;;;;;;3.50;0.40;;;19.50;89.60;;;;;;5079208;28;20044;-81
2022/06/14 09:21:31;;;;;;;6.13;0.57;;;19.40;90.90;;;;;;5081135;28;20040;-81
2022/06/14 09:24:19;;;;;;;4.07;0.38;;;19.60;92.50;;;;;;5063110;28;20075;-80
2022/06/14 09:27:06;;;;;;;1.23;0.28;;;20.20;92.70;;;;;;5079345;28;20046;-81
2022/06/14 09:30:05;;;;;;;3.65;0.40;;;20.90;90.40;;;;;;5080258;28;20405;-81
2022/06/14 09:33:15;;;;;;;2.40;0.30;;;21.60;81.80;;;;;;5078394;28;20048;-81
2022/06/14 09:36:02;;;;;;;3.78;0.30;;;22.50;78.80;;;;;;5098548;28;20047;-81
2022/06/14 09:38:38;;;;;;;2.25;0.45;;;23.10;77.90;;;;;;5077972;28;20059;-82
2022/06/14 09:41:42;;;;;;;2.95;0.40;;;23.60;74.90;;;;;;5074267;28;20059;-82
2022/06/14 09:44:19;;;;;;;4.68;0.40;;;23.80;68.20;;;;;;5073773;28;20169;-81
2022/06/14 09:47:21;;;;;;;3.08;0.30;;;23.30;69.60;;;;;;5077465;28;20049;-80
2022/06/14 09:50:19;;;;;;;2.70;0.43;;;22.50;66.70;;;;;;5076583;28;20079;-80
2022/06/14 09:53:08;;;;;;;5.18;0.50;;;21.50;72.30;;;;;;5077277;28;20107;-80
2022/06/14 09:56:02;;;;;;;4.30;0.40;;;20.90;77.30;;;;;;5076312;28;20519;-80
2022/06/14 09:58:53;;;;;;;3.55;1.15;;;20.50;80.30;;;;;;5077043;28;20044;-81
2022/06/14 10:01:35;;;;;;;2.50;0.22;;;20.40;85.70;;;;;;5078083;28;20111;-82
2022/06/14 10:04:06;;;;;;;2.83;0.40;;;20.40;82.40;;;;;;5077438;28;20037;-81
2022/06/14 10:06:52;;;;;;;2.65;0.28;;;20.20;79.60;;;;;;5062749;28;20036;-82
2022/06/14 10:09:31;;;;;;;1.75;0.70;;;20.50;75.60;;;;;;5077833;28;20175;-81
2022/06/14 10:12:05;;;;;;;2.80;0.30;;;21.00;72.00;;;;;;5076947;28;20568;-81
2022/06/14 10:14:43;;;;;;;7.45;0.43;;;21.20;74.50;;;;;;5073011;28;20074;-82
2022/06/14 10:17:22;;;;;;;2.67;0.57;;;21.90;71.00;;;;;;5072684;28;20043;-81
2022/06/14 10:20:19;;;;;;;4.88;0.30;;;22.40;67.00;;;;;;5076476;28;20059;-82
2022/06/14 10:22:53;;;;;;;1.45;0.20;;;23.30;59.90;;;;;;5074008;28;20041;-82
2022/06/14 10:25:24;;;;;;;;;;;22.80;59.10;;;;;;5075575;28;20123;-82
2022/06/14 10:28:13;;;;;;;8.02;0.57;;;22.00;61.70;;;;;;5073285;28;19976;-82
2022/06/14 10:30:51;;;;;;;3.53;0.90;;;21.40;65.20;;;;;;5074603;28;20095;-82
2022/06/14 10:33:35;;;;;;;3.33;0.30;;;21.20;68.20;;;;;;5077015;28;20056;-81
2022/06/14 10:36:20;;;;;;;2.85;0.22;;;21.30;72.90;;;;;;5079997;28;20040;-83
2022/06/14 10:38:59;;;;;;;4.07;0.30;;;21.40;74.40;;;;;;5078297;28;20067;-80
2022/06/14 10:41:49;;;;;;;1.35;0.20;;;21.20;72.50;;;;;;5077429;28;20044;-81
2022/06/14 10:44:25;;;;;;;3.67;0.40;;;21.10;69.90;;;;;;5077983;28;20041;-83
2022/06/14 10:47:15;;;;;;;2.33;0.35;;;21.00;73.00;;;;;;5078522;28;20048;-80
2022/06/14 10:49:52;;;;;;;1.75;0.20;;;20.80;69.60;;;;;;5077108;28;20048;-80
2022/06/14 10:52:54;;;;;;;2.72;0.28;;;20.60;73.40;;;;;;5059255;28;20048;-80
2022/06/14 10:55:33;;;;;;;2.65;0.20;;;20.60;70.70;;;;;;5076701;28;20498;-80
2022/06/14 10:58:13;;;;;;;1.88;0.20;;;20.60;71.60;;;;;;5074034;28;20072;-82
2022/06/14 11:00:56;;;;;;;1.02;0.25;;;21.00;71.30;;;;;;5073542;28;20043;-81
2022/06/14 11:03:44;;;;;;;2.00;0.30;;;21.80;73.60;;;;;;5072394;28;20517;-81
2022/06/14 11:06:47;;;;;;;1.38;0.32;;;22.70;67.30;;;;;;5073979;28;20045;-81
2022/06/14 11:09:40;;;;;;;1.50;0.30;;;23.00;66.90;;;;;;5075050;28;20039;-81
2022/06/14 11:12:59;;;;;;;1.25;0.20;;;23.30;61.40;;;;;;5072419;28;20036;-82
2022/06/14 11:16:03;;;;;;;1.48;0.28;;;23.70;57.80;;;;;;5052873;28;20418;-82
2022/06/14 11:18:56;;;;;;;2.00;0.22;;;23.80;64.10;;;;;;5037302;28;20052;-82
2022/06/14 11:21:49;;;;;;;1.23;0.20;;;23.90;62.60;;;;;;5054730;28;20048;-83
2022/06/14 11:24:24;;;;;;;3.08;0.57;;;23.90;60.20;;;;;;5058877;28;20083;-81
2022/06/14 11:27:10;;;;;;;2.33;0.40;;;23.40;61.40;;;;;;5046020;28;20037;-82
2022/06/14 11:29:41;;;;;;;1.52;0.25;;;22.90;63.70;;;;;;5083679;28;20041;-81
2022/06/14 11:32:25;;;;;;;1.38;0.30;;;22.60;64.00;;;;;;5088346;28;20040;-82
2022/06/14 11:35:03;;;;;;;2.37;0.30;;;22.60;65.50;;;;;;5070394;28;20092;-81
2022/06/14 11:38:07;;;;;;;2.35;0.40;;;22.60;63.80;;;;;;5070033;28;20047;-81
2022/06/14 11:40:39;;;;;;;1.10;0.20;;;22.80;62.70;;;;;;5086030;28;20044;-81
2022/06/14 11:43:39;;;;;;;2.00;0.20;;;23.00;63.80;;;;;;5063060;28;20635;-82
2022/06/14 11:46:42;;;;;;;1.00;0.28;;;23.10;61.70;;;;;;5079782;28;20083;-81
2022/06/14 11:49:24;;;;;;;3.00;0.68;;;23.20;62.40;;;;;;5076600;28;20541;-82
2022/06/14 11:52:08;;;;;;;1.15;0.40;;;23.30;61.90;;;;;;5079722;28;20457;-82
2022/06/14 11:55:11;;;;;;;2.70;0.73;;;23.40;60.30;;;;;;5061564;28;20486;-82
2022/06/14 11:57:52;;;;;;;5.85;0.35;;;23.60;58.70;;;;;;5076616;28;20059;-82
2022/06/14 12:00:50;;;;;;;1.38;0.30;;;23.80;58.70;;;;;;5077684;28;20052;-82
2022/06/14 12:03:47;;;;;;;1.77;0.22;;;23.80;58.60;;;;;;5076083;28;20044;-82
2022/06/14 12:06:50;;;;;;;4.15;0.40;;;23.80;55.90;;;;;;5075582;28;20090;-82
2022/06/14 12:09:53;;;;;;;4.28;0.52;;;23.80;55.80;;;;;;5059993;28;20040;-82
2022/06/14 12:12:52;;;;;;;1.02;0.38;;;24.50;55.90;;;;;;5076175;28;20068;-82
2022/06/14 12:15:31;;;;;;;1.92;0.30;;;25.10;52.80;;;;;;5075769;28;20568;-81
2022/06/14 12:18:01;;;;;;;1.95;0.20;;;24.70;54.60;;;;;;5077768;28;20098;-82
2022/06/14 12:20:29;;;;;;;1.30;0.22;;;23.90;56.10;;;;;;5076770;28;20047;-82
2022/06/14 12:23:14;;;;;;;2.28;0.25;;;23.40;57.40;;;;;;5075802;28;20487;-82
2022/06/14 12:28:34;;;;;;;3.50;0.50;;;22.80;60.70;;;;;;5076732;28;19916;-82
2022/06/14 12:31:09;;;;;;;1.45;0.20;;;22.80;58.70;;;;;;5075589;28;20037;-82
2022/06/14 12:33:45;;;;;;;2.78;0.20;;;22.80;57.50;;;;;;5075868;28;20053;-82
2022/06/14 12:36:45;;;;;;;4.00;0.20;;;22.80;57.40;;;;;;5076391;28;20071;-82
2022/06/14 12:39:17;;;;;;;0.63;0.50;;;23.00;58.60;;;;;;5060942;28;20040;-82
2022/06/14 12:42:32;;;;;;;0.98;0.20;;;23.50;60.50;;;;;;5076137;28;20449;-82
2022/06/14 12:45:29;;;;;;;1.58;0.20;;;24.50;54.80;;;;;;5075228;28;20044;-83
2022/06/14 12:48:13;;;;;;;1.90;0.30;;;25.00;52.40;;;;;;5073257;28;20049;-82
2022/06/14 12:50:54;;;;;;;0.43;0.17;;;25.10;54.20;;;;;;5060616;28;20036;-81
2022/06/14 12:53:38;;;;;;;0.63;0.10;;;25.30;55.00;;;;;;5077274;28;20320;-82
2022/06/14 12:56:27;;;;;;;0.73;0.25;;;25.80;53.30;;;;;;5082712;28;20514;-82
2022/06/14 12:59:13;;;;;;;2.83;0.43;;;26.70;54.90;;;;;;5079994;28;20517;-82
2022/06/14 13:01:44;;;;;;;1.48;0.20;;;26.80;53.20;;;;;;5081916;28;20174;-83
2022/06/14 13:04:18;;;;;;;1.70;0.10;;;26.70;54.20;;;;;;5065025;28;20036;-82
2022/06/14 13:06:55;;;;;;;3.88;0.30;;;26.60;52.60;;;;;;5081198;28;20051;-82
2022/06/14 13:09:49;;;;;;;1.27;0.40;;;26.70;51.50;;;;;;5082722;28;20104;-82
2022/06/14 13:12:31;;;;;;;1.00;0.10;;;26.10;50.60;;;;;;5079921;28;20043;-83
2022/06/14 13:15:22;;;;;;;2.15;0.30;;;26.10;51.50;;;;;;5079956;28;20518;-80
2022/06/14 13:18:06;;;;;;;2.65;0.30;;;25.90;52.10;;;;;;5080386;28;20138;-82
2022/06/14 13:21:16;;;;;;;1.63;0.20;;;25.40;52.10;;;;;;5080646;28;20509;-81
2022/06/14 13:23:57;;;;;;;3.03;0.20;;;25.00;53.80;;;;;;5062236;28;20159;-82
2022/06/14 13:26:47;;;;;;;2.55;0.40;;;24.60;55.10;;;;;;5075943;28;20040;-83
2022/06/14 13:29:22;;;;;;;2.03;0.52;;;24.30;56.00;;;;;;5072996;28;20502;-82
2022/06/14 13:32:25;;;;;;;2.65;0.50;;;24.10;57.50;;;;;;5071910;28;20187;-83
2022/06/14 13:35:20;;;;;;;1.05;0.20;;;24.30;57.90;;;;;;5073349;28;20040;-83
2022/06/14 13:38:31;;;;;;;1.52;0.28;;;24.70;56.60;;;;;;5073214;28;20040;-82
2022/06/14 13:41:16;;;;;;;2.75;0.40;;;25.00;55.90;;;;;;5052257;28;20053;-83
2022/06/14 13:44:02;;;;;;;2.65;0.30;;;24.60;56.60;;;;;;5053042;28;20041;-82
2022/06/14 13:46:32;;;;;;;2.90;0.38;;;24.50;56.50;;;;;;5054097;28;20037;-82
2022/06/14 13:49:27;;;;;;;3.03;0.30;;;24.30;57.30;;;;;;5054229;28;20067;-82
2022/06/14 13:52:19;;;;;;;1.53;0.37;;;24.00;55.90;;;;;;5053804;28;20041;-82
2022/06/14 13:55:05;;;;;;;2.03;0.80;;;23.60;59.50;;;;;;5054694;28;20053;-82
2022/06/14 13:57:33;;;;;;;1.67;0.38;;;23.50;58.70;;;;;;5055511;28;20483;-82
2022/06/14 14:00:20;;;;;;;2.65;0.20;;;23.30;60.10;;;;;;5062264;28;20044;-84
2022/06/14 14:02:56;;;;;;;2.22;0.40;;;23.10;59.20;;;;;;5074452;28;20043;-81
2022/06/14 14:05:37;;;;;;;6.38;0.60;;;23.00;60.20;;;;;;5074552;28;20040;-82
2022/06/14 14:08:03;;;;;;;1.60;0.30;;;23.10;60.70;;;;;;5073179;28;20071;-82
2022/06/14 14:11:01;;;;;;;4.28;0.40;;;23.10;60.60;;;;;;5057220;28;20036;-82